createdAt,value
2018-09-09T00:28:43.445Z,2.20
2018-09-09T00:31:12.012Z,2.70
2018-09-09T00:33:40.925Z,2.17
2018-09-09T00:36:09.426Z,3.02
2018-09-09T00:38:38.012Z,4.58
2018-09-09T00:41:06.856Z,2.77
2018-09-09T00:43:35.743Z,2.20
2018-09-09T00:46:04.227Z,3.30
2018-09-09T00:48:33.229Z,2.00
2018-09-09T00:51:07.328Z,2.47
2018-09-09T00:53:43.960Z,2.90
2018-09-09T00:56:12.937Z,4.90
2018-09-09T00:58:41.518Z,3.05
2018-09-09T01:01:16.037Z,2.15
2018-09-09T01:03:45.354Z,2.10
2018-09-09T01:06:13.998Z,2.10
2018-09-09T01:08:42.414Z,2.20
2018-09-09T01:11:12.008Z,2.00
2018-09-09T01:13:40.687Z,1.95
2018-09-09T01:16:10.360Z,2.30
2018-09-09T01:18:38.946Z,1.87
2018-09-09T01:21:07.349Z,2.40
2018-09-09T01:23:36.128Z,2.10
2018-09-09T01:26:04.525Z,2.30
2018-09-09T01:28:32.981Z,2.20
2018-09-09T01:31:01.413Z,2.00
2018-09-09T01:33:30.459Z,2.00
2018-09-09T01:35:58.968Z,2.60
2018-09-09T01:38:27.524Z,2.20
2018-09-09T01:40:56.101Z,3.25
2018-09-09T01:43:24.630Z,2.72
2018-09-09T01:45:53.013Z,2.10
2018-09-09T01:48:21.683Z,1.80
2018-09-09T01:50:51.113Z,1.90
2018-09-09T01:53:19.636Z,2.20
2018-09-09T01:55:48.116Z,1.98
2018-09-09T01:58:17.220Z,2.17
2018-09-09T02:00:45.715Z,2.27
2018-09-09T02:03:14.189Z,2.20
2018-09-09T02:05:42.680Z,2.15
2018-09-09T02:08:11.472Z,2.20
2018-09-09T02:10:40.772Z,2.40
2018-09-09T02:13:10.068Z,1.87
2018-09-09T02:15:39.164Z,2.10
2018-09-09T02:18:07.702Z,2.35
2018-09-09T02:20:36.216Z,2.12
2018-09-09T02:23:04.849Z,2.20
2018-09-09T02:25:33.516Z,2.35
2018-09-09T02:28:02.116Z,2.20
2018-09-09T02:30:31.484Z,2.02
2018-09-09T02:33:00.164Z,2.33
2018-09-09T02:35:28.669Z,1.90
2018-09-09T02:37:57.417Z,2.30
2018-09-09T02:40:25.816Z,2.37
2018-09-09T02:42:54.444Z,2.17
2018-09-09T02:45:22.886Z,2.00
2018-09-09T02:47:51.293Z,1.60
2018-09-09T02:50:19.957Z,2.05
2018-09-09T02:52:49.649Z,1.67
2018-09-09T02:55:18.140Z,2.08
2018-09-09T02:57:46.596Z,1.90
2018-09-09T03:00:15.128Z,1.70
2018-09-09T03:02:43.617Z,2.00
2018-09-09T03:05:12.573Z,1.90
2018-09-09T03:07:41.085Z,1.87
2018-09-09T03:10:09.685Z,2.27
2018-09-09T03:12:38.230Z,1.87
2018-09-09T03:15:06.861Z,1.85
2018-09-09T03:17:35.277Z,1.87
2018-09-09T03:20:04.346Z,2.08
2018-09-09T03:22:33.601Z,1.95
2018-09-09T03:25:02.945Z,1.80
2018-09-09T03:27:32.302Z,1.62
2018-09-09T03:30:01.550Z,2.00
2018-09-09T03:32:29.941Z,1.60
2018-09-09T03:34:58.354Z,2.02
2018-09-09T03:37:26.872Z,1.62
2018-09-09T03:39:55.307Z,1.80
2018-09-09T03:42:23.790Z,1.80
2018-09-09T03:44:52.811Z,2.12
2018-09-09T03:47:21.204Z,1.67
2018-09-09T03:49:50.508Z,1.77
2018-09-09T03:52:19.070Z,1.60
2018-09-09T03:54:47.504Z,2.22
2018-09-09T03:57:16.343Z,1.70
2018-09-09T03:59:44.841Z,2.10
2018-09-09T04:02:13.284Z,1.77
2018-09-09T04:04:42.772Z,2.20
2018-09-09T04:07:11.300Z,2.08
2018-09-09T04:09:40.362Z,1.80
2018-09-09T04:12:09.428Z,1.85
2018-09-09T04:14:37.954Z,2.08
2018-09-09T04:17:06.852Z,1.98
2018-09-09T04:19:35.828Z,1.90
2018-09-09T04:22:04.324Z,1.90
2018-09-09T04:24:33.287Z,1.92
2018-09-09T04:27:02.288Z,2.10
2018-09-09T04:29:31.327Z,1.70
2018-09-09T04:32:00.005Z,1.85
2018-09-09T04:34:28.609Z,1.87
2018-09-09T04:36:57.345Z,2.12
2018-09-09T04:39:25.780Z,2.10
2018-09-09T04:41:54.357Z,2.08
2018-09-09T04:44:22.903Z,2.20
2018-09-09T04:46:51.380Z,2.37
2018-09-09T04:49:20.403Z,2.20
2018-09-09T04:51:49.125Z,2.20
2018-09-09T04:54:18.180Z,1.80
2018-09-09T04:56:46.648Z,2.30
2018-09-09T04:59:15.013Z,2.00
2018-09-09T05:01:44.101Z,2.95
2018-09-09T05:04:12.820Z,2.10
2018-09-09T05:06:41.382Z,2.02
2018-09-09T05:09:10.209Z,1.87
2018-09-09T05:11:38.755Z,2.02
2018-09-09T05:14:07.815Z,1.95
2018-09-09T05:16:36.349Z,1.90
2018-09-09T05:19:05.681Z,2.10
2018-09-09T05:21:34.617Z,2.33
2018-09-09T05:24:03.958Z,2.05
2018-09-09T05:26:32.356Z,2.47
2018-09-09T05:29:01.044Z,2.00
2018-09-09T05:31:29.585Z,2.20
2018-09-09T05:33:58.505Z,2.58
2018-09-09T05:36:27.405Z,2.20
2018-09-09T05:38:56.103Z,2.17
2018-09-09T05:41:24.621Z,2.45
2018-09-09T05:43:53.460Z,1.85
2018-09-09T05:46:21.936Z,2.17
2018-09-09T05:48:50.504Z,2.30
2018-09-09T05:51:19.156Z,2.50
2018-09-09T05:53:47.709Z,2.20
2018-09-09T05:56:16.190Z,2.10
2018-09-09T05:58:44.733Z,2.50
2018-09-09T06:01:14.316Z,2.52
2018-09-09T06:03:42.813Z,3.30
2018-09-09T06:06:12.228Z,7.83
2018-09-09T06:08:40.780Z,2.47
2018-09-09T06:11:09.980Z,1.80
2018-09-09T06:13:38.501Z,2.85
2018-09-09T06:16:07.860Z,2.47
2018-09-09T06:18:36.438Z,2.12
2018-09-09T06:21:04.880Z,2.33
2018-09-09T06:23:33.592Z,2.05
2018-09-09T06:26:02.146Z,2.00
2018-09-09T06:28:30.670Z,2.30
2018-09-09T06:30:59.200Z,2.10
2018-09-09T06:33:28.344Z,2.45
2018-09-09T06:35:57.364Z,2.08
2018-09-09T06:38:25.861Z,2.17
2018-09-09T06:40:54.503Z,2.00
2018-09-09T06:43:23.227Z,2.15
2018-09-09T06:45:51.954Z,1.75
2018-09-09T06:48:22.653Z,1.98
2018-09-09T06:50:50.791Z,2.12
2018-09-09T06:53:19.320Z,2.00
2018-09-09T06:55:47.713Z,1.80
2018-09-09T06:58:16.783Z,2.10
2018-09-09T07:00:45.355Z,1.90
2018-09-09T07:03:14.241Z,2.05
2018-09-09T07:05:42.741Z,2.20
2018-09-09T07:08:12.309Z,1.82
2018-09-09T07:10:40.760Z,2.22
2018-09-09T07:13:09.141Z,2.02
2018-09-09T07:15:37.881Z,2.00
2018-09-09T07:18:06.395Z,2.22
2018-09-09T07:20:34.869Z,2.40
2018-09-09T07:23:03.477Z,2.22
2018-09-09T07:25:32.034Z,2.08
2018-09-09T07:28:00.500Z,1.82
2018-09-09T07:30:29.471Z,1.80
2018-09-09T07:32:57.984Z,2.00
2018-09-09T07:35:27.016Z,2.20
2018-09-09T07:37:56.352Z,2.65
2018-09-09T07:40:24.975Z,2.00
2018-09-09T07:42:53.585Z,1.80
2018-09-09T07:45:22.193Z,2.10
2018-09-09T07:47:52.248Z,1.52
2018-09-09T07:50:20.828Z,1.70
2018-09-09T07:52:49.087Z,1.65
2018-09-09T07:55:17.247Z,2.02
2018-09-09T07:57:45.927Z,1.67
2018-09-09T08:00:14.191Z,1.72
2018-09-09T08:02:42.574Z,1.82
2018-09-09T08:05:10.816Z,1.77
2018-09-09T08:07:39.279Z,2.00
2018-09-09T08:10:07.440Z,2.05
2018-09-09T08:12:36.040Z,1.85
2018-09-09T08:15:04.237Z,1.82
2018-09-09T08:17:32.363Z,1.80
2018-09-09T08:20:00.659Z,1.65
2018-09-09T08:22:29.028Z,2.02
2018-09-09T08:24:57.218Z,1.80
2018-09-09T08:27:25.669Z,1.70
2018-09-09T08:29:54.445Z,2.12
2018-09-09T08:32:23.176Z,1.95
2018-09-09T08:34:51.306Z,1.70
2018-09-09T08:37:20.768Z,1.90
2018-09-09T08:39:49.012Z,1.90
2018-09-09T08:42:17.192Z,2.10
2018-09-09T08:44:45.417Z,1.82
2018-09-09T08:47:13.708Z,2.00
2018-09-09T08:49:41.981Z,1.80
2018-09-09T08:52:10.544Z,1.87
2018-09-09T08:54:38.864Z,1.90
2018-09-09T08:57:07.089Z,1.87
2018-09-09T08:59:35.227Z,1.90
2018-09-09T09:02:03.349Z,11.40
2018-09-09T09:04:32.332Z,2.02
2018-09-09T09:07:00.431Z,1.92
2018-09-09T09:09:28.808Z,1.95
2018-09-09T09:11:56.981Z,1.70
2018-09-09T09:14:25.246Z,1.80
2018-09-09T09:16:53.653Z,2.00
2018-09-09T09:19:21.944Z,2.05
2018-09-09T09:21:50.649Z,1.75
2018-09-09T09:24:18.789Z,1.55
2018-09-09T09:26:47.824Z,1.60
2018-09-09T09:29:16.505Z,1.60
2018-09-09T09:31:44.684Z,1.85
2018-09-09T09:34:13.060Z,1.70
2018-09-09T09:36:42.054Z,1.72
2018-09-09T09:39:10.504Z,1.80
2018-09-09T09:41:39.250Z,1.77
2018-09-09T09:44:07.653Z,1.80
2018-09-09T09:46:35.912Z,1.52
2018-09-09T09:49:04.412Z,1.42
2018-09-09T09:51:32.723Z,1.50
2018-09-09T09:54:00.915Z,1.70
2018-09-09T09:56:29.506Z,1.70
2018-09-09T09:58:57.647Z,1.30
2018-09-09T10:01:26.388Z,1.40
2018-09-09T10:03:54.637Z,1.90
2018-09-09T10:06:22.813Z,1.57
2018-09-09T10:08:51.169Z,1.60
2018-09-09T10:11:19.353Z,1.72
2018-09-09T10:13:47.564Z,1.30
2018-09-09T10:16:15.728Z,1.80
2018-09-09T10:18:43.880Z,1.72
2018-09-09T10:21:12.105Z,1.50
2018-09-09T10:23:40.395Z,1.70
2018-09-09T10:26:08.640Z,1.90
2018-09-09T10:28:36.843Z,1.70
2018-09-09T10:31:04.936Z,1.60
2018-09-09T10:33:33.358Z,1.87
2018-09-09T10:36:02.081Z,2.00
2018-09-09T10:38:30.371Z,1.70
2018-09-09T10:40:58.614Z,1.50
2018-09-09T10:43:26.793Z,1.60
2018-09-09T10:45:55.417Z,1.60
2018-09-09T10:48:23.687Z,1.55
2018-09-09T10:50:52.188Z,1.55
2018-09-09T10:53:20.382Z,1.60
2018-09-09T10:55:48.556Z,1.77
2018-09-09T10:58:17.142Z,1.60
2018-09-09T11:00:45.482Z,1.40
2018-09-09T11:03:13.676Z,1.45
2018-09-09T11:05:42.762Z,1.60
2018-09-09T11:08:14.446Z,1.40
2018-09-09T11:10:42.785Z,1.47
2018-09-09T11:13:11.614Z,1.62
2018-09-09T11:15:39.901Z,1.70
2018-09-09T11:18:08.547Z,1.70
2018-09-09T11:20:37.285Z,1.35
2018-09-09T11:23:05.424Z,1.72
2018-09-09T11:25:33.641Z,1.70
2018-09-09T11:28:01.731Z,1.77
2018-09-09T11:30:30.041Z,1.35
2018-09-09T11:32:58.823Z,1.50
2018-09-09T11:35:27.187Z,1.60
2018-09-09T11:37:56.586Z,1.30
2018-09-09T11:40:24.760Z,1.50
2018-09-09T11:42:53.069Z,1.20
2018-09-09T11:45:21.410Z,1.50
2018-09-09T11:47:49.661Z,2.10
2018-09-09T11:50:17.777Z,1.20
2018-09-09T11:52:46.015Z,1.00
2018-09-09T11:55:14.194Z,1.32
2018-09-09T11:57:43.325Z,1.30
2018-09-09T12:00:11.437Z,1.10
2018-09-09T12:02:39.686Z,1.40
2018-09-09T12:05:07.916Z,1.50
2018-09-09T12:07:36.848Z,1.30
2018-09-09T12:10:05.106Z,1.35
2018-09-09T12:12:33.565Z,1.60
2018-09-09T12:15:01.771Z,1.50
2018-09-09T12:17:29.919Z,1.40
2018-09-09T12:19:58.057Z,1.40
2018-09-09T12:22:26.244Z,1.25
2018-09-09T12:24:55.211Z,1.40
2018-09-09T12:27:23.411Z,1.30
2018-09-09T12:29:51.597Z,1.40
2018-09-09T12:32:20.805Z,1.30
2018-09-09T12:34:49.561Z,1.32
2018-09-09T12:37:17.696Z,1.70
2018-09-09T12:39:45.951Z,1.30
2018-09-09T12:42:14.443Z,1.30
2018-09-09T12:44:47.822Z,1.47
2018-09-09T12:47:21.668Z,1.50
2018-09-09T12:49:49.960Z,1.32
2018-09-09T12:52:18.152Z,1.32
2018-09-09T12:54:46.805Z,1.30
2018-09-09T12:57:15.281Z,1.25
2018-09-09T12:59:43.535Z,1.20
2018-09-09T13:02:12.191Z,1.27
2018-09-09T13:04:41.468Z,1.30
2018-09-09T13:07:09.733Z,1.20
2018-09-09T13:09:37.965Z,1.30
2018-09-09T13:12:06.414Z,1.20
2018-09-09T13:14:34.629Z,1.30
2018-09-09T13:17:02.884Z,1.20
2018-09-09T13:19:31.126Z,1.30
2018-09-09T13:21:59.907Z,1.55
2018-09-09T13:24:28.107Z,1.27
2018-09-09T13:26:56.563Z,1.30
2018-09-09T13:29:24.659Z,1.35
2018-09-09T13:31:52.889Z,1.30
2018-09-09T13:34:21.007Z,1.20
2018-09-09T13:36:49.189Z,1.30
2018-09-09T13:39:17.333Z,1.50
2018-09-09T13:41:45.701Z,1.20
2018-09-09T13:44:13.818Z,1.10
2018-09-09T13:46:42.440Z,1.45
2018-09-09T13:49:10.568Z,1.17
2018-09-09T13:51:38.941Z,2.45
2018-09-09T13:54:07.116Z,1.50
2018-09-09T13:56:35.289Z,1.00
2018-09-09T13:59:03.493Z,1.32
2018-09-09T14:01:32.260Z,1.20
2018-09-09T14:04:00.375Z,1.42
2018-09-09T14:06:28.773Z,1.27
2018-09-09T14:08:57.085Z,1.40
2018-09-09T14:11:25.242Z,1.27
2018-09-09T14:13:53.425Z,1.12
2018-09-09T14:16:21.607Z,1.25
2018-09-09T14:18:49.702Z,1.85
2018-09-09T14:21:17.841Z,1.15
2018-09-09T14:23:46.132Z,1.27
2018-09-09T14:26:14.324Z,1.12
2018-09-09T14:28:42.580Z,1.12
2018-09-09T14:31:10.744Z,1.30
2018-09-09T14:33:38.961Z,1.10
2018-09-09T14:36:07.294Z,1.10
2018-09-09T14:38:35.437Z,1.27
2018-09-09T14:41:03.554Z,1.40
2018-09-09T14:43:31.966Z,1.82
2018-09-09T14:46:00.080Z,1.50
2018-09-09T14:48:28.212Z,1.50
2018-09-09T14:50:56.348Z,1.20
2018-09-09T14:53:24.487Z,1.17
2018-09-09T14:55:53.044Z,1.50
2018-09-09T14:58:21.329Z,1.65
2018-09-09T15:00:49.700Z,1.40
2018-09-09T15:03:17.980Z,1.30
2018-09-09T15:05:46.220Z,1.47
2018-09-09T15:08:14.425Z,1.40
2018-09-09T15:10:42.547Z,1.22
2018-09-09T15:13:10.768Z,0.90
2018-09-09T15:15:38.916Z,1.30
2018-09-09T15:18:07.086Z,1.42
2018-09-09T15:20:35.430Z,1.22
2018-09-09T15:23:03.837Z,1.30
2018-09-09T15:25:32.016Z,1.40
2018-09-09T15:28:00.219Z,1.30
2018-09-09T15:30:28.836Z,1.40
2018-09-09T15:32:57.268Z,1.15
2018-09-09T15:35:25.429Z,1.37
2018-09-09T15:37:53.563Z,1.40
2018-09-09T15:40:21.781Z,1.40
2018-09-09T15:42:50.216Z,1.45
2018-09-09T15:45:18.609Z,1.20
2018-09-09T15:47:46.824Z,1.30
2018-09-09T15:50:15.168Z,1.27
2018-09-09T15:52:43.396Z,1.30
2018-09-09T15:55:11.655Z,1.40
2018-09-09T15:57:39.868Z,1.55
2018-09-09T16:00:08.657Z,2.65
2018-09-09T16:02:36.792Z,1.27
2018-09-09T16:05:05.523Z,1.25
2018-09-09T16:07:34.289Z,1.20
2018-09-09T16:10:02.569Z,1.50
2018-09-09T16:12:30.770Z,1.40
2018-09-09T16:14:59.011Z,1.27
2018-09-09T16:17:27.184Z,1.60
2018-09-09T16:19:56.145Z,1.57
2018-09-09T16:22:24.438Z,1.40
2018-09-09T16:24:52.903Z,1.25
2018-09-09T16:27:21.036Z,1.10
2018-09-09T16:29:49.325Z,1.05
2018-09-09T16:32:18.552Z,1.30
2018-09-09T16:34:46.766Z,1.30
2018-09-09T16:37:15.149Z,1.17
2018-09-09T16:39:43.491Z,1.20
2018-09-09T16:42:11.803Z,1.50
2018-09-09T16:44:40.109Z,3.20
2018-09-09T16:47:08.353Z,1.80
2018-09-09T16:49:36.683Z,1.60
2018-09-09T16:52:05.050Z,1.40
2018-09-09T16:54:33.633Z,1.17
2018-09-09T16:57:01.795Z,1.65
2018-09-09T16:59:30.197Z,1.55
2018-09-09T17:01:58.305Z,1.32
2018-09-09T17:04:26.536Z,1.60
2018-09-09T17:06:54.855Z,1.60
2018-09-09T17:09:23.160Z,1.60
2018-09-09T17:11:52.045Z,1.37
2018-09-09T17:14:20.236Z,1.40
2018-09-09T17:16:48.367Z,1.27
2018-09-09T17:19:17.080Z,1.20
2018-09-09T17:21:45.231Z,1.35
2018-09-09T17:24:13.428Z,1.50
2018-09-09T17:26:42.229Z,1.50
2018-09-09T17:29:10.436Z,1.42
2018-09-09T17:31:38.577Z,1.70
2018-09-09T17:34:06.725Z,1.80
2018-09-09T17:36:34.919Z,1.60
2018-09-09T17:39:03.857Z,1.57
2018-09-09T17:41:32.065Z,1.37
2018-09-09T17:44:00.292Z,1.20
2018-09-09T17:46:28.442Z,1.40
2018-09-09T17:48:56.685Z,1.20
2018-09-09T17:51:24.883Z,1.42
2018-09-09T17:53:53.030Z,1.40
2018-09-09T17:56:21.940Z,1.75
2018-09-09T17:58:50.605Z,5.47
2018-09-09T18:01:18.985Z,8.43
2018-09-09T18:03:47.190Z,4.25
2018-09-09T18:06:15.482Z,2.17
2018-09-09T18:08:43.615Z,2.10
2018-09-09T18:11:11.859Z,2.02
2018-09-09T18:13:44.764Z,2.45
2018-09-09T18:16:13.517Z,2.20
2018-09-09T18:18:41.698Z,2.05
2018-09-09T18:21:10.047Z,2.20
2018-09-09T18:23:38.212Z,2.25
2018-09-09T18:26:06.393Z,2.50
2018-09-09T18:28:34.527Z,2.30
2018-09-09T18:31:02.684Z,2.60
2018-09-09T18:33:30.911Z,2.30
2018-09-09T18:35:59.298Z,2.08
2018-09-09T18:38:27.724Z,2.10
2018-09-09T18:40:55.880Z,1.98
2018-09-09T18:43:25.544Z,2.42
2018-09-09T18:45:54.270Z,2.15
2018-09-09T18:48:23.117Z,2.12
2018-09-09T18:50:52.443Z,2.20
2018-09-09T18:53:20.984Z,5.00
2018-09-09T18:55:49.748Z,7.58
2018-09-09T18:58:23.556Z,5.12
2018-09-09T19:00:52.107Z,4.30
2018-09-09T19:03:21.246Z,3.90
2018-09-09T19:05:49.896Z,3.83
2018-09-09T19:08:19.022Z,3.90
2018-09-09T19:10:47.494Z,3.55
2018-09-09T19:13:16.567Z,3.85
2018-09-09T19:15:46.097Z,4.85
2018-09-09T19:18:14.645Z,5.40
2018-09-09T19:20:43.219Z,4.70
2018-09-09T19:23:11.742Z,8.58
2018-09-09T19:25:41.037Z,9.80
2018-09-09T19:28:09.620Z,5.03
2018-09-09T19:30:38.120Z,4.50
2018-09-09T19:33:07.105Z,4.30
2018-09-09T19:35:35.690Z,4.50
2018-09-09T19:38:04.716Z,4.97
2018-09-09T19:40:33.264Z,4.40
2018-09-09T19:43:02.068Z,4.80
2018-09-09T19:45:30.638Z,4.15
2018-09-09T19:47:59.214Z,6.22
2018-09-09T19:50:27.692Z,4.92
2018-09-09T19:52:57.134Z,4.03
2018-09-09T19:55:26.332Z,4.33
2018-09-09T19:57:54.889Z,4.40
2018-09-09T20:00:23.374Z,4.62
2018-09-09T20:02:51.830Z,7.08
2018-09-09T20:05:21.648Z,4.78
2018-09-09T20:07:50.869Z,4.15
2018-09-09T20:10:19.517Z,3.83
2018-09-09T20:12:48.089Z,3.80
2018-09-09T20:15:17.086Z,3.80
2018-09-09T20:17:45.565Z,7.85
2018-09-09T20:20:14.641Z,6.55
2018-09-09T20:22:47.640Z,4.10
2018-09-09T20:25:16.265Z,3.42
2018-09-09T20:27:44.820Z,4.45
2018-09-09T20:30:14.097Z,4.03
2018-09-09T20:32:42.667Z,4.30
2018-09-09T20:35:12.809Z,4.20
2018-09-09T20:37:41.457Z,4.67
2018-09-09T20:40:10.206Z,5.40
2018-09-09T20:42:38.674Z,5.95
2018-09-09T20:45:07.477Z,4.60
2018-09-09T20:47:36.308Z,7.75
2018-09-09T20:50:04.761Z,5.50
2018-09-09T20:52:33.233Z,5.65
2018-09-09T20:55:02.326Z,3.50
2018-09-09T20:57:30.871Z,3.75
2018-09-09T20:59:59.484Z,3.30
2018-09-09T21:02:28.312Z,3.62
2018-09-09T21:04:57.032Z,4.10
2018-09-09T21:07:25.676Z,3.75
2018-09-09T21:09:54.704Z,3.35
2018-09-09T21:12:23.223Z,3.70
2018-09-09T21:14:52.946Z,3.20
2018-09-09T21:17:21.505Z,3.33
2018-09-09T21:19:50.043Z,3.10
2018-09-09T21:22:18.717Z,3.35
2018-09-09T21:24:47.165Z,3.25
2018-09-09T21:27:16.308Z,3.30
2018-09-09T21:29:45.748Z,2.98
2018-09-09T21:32:14.174Z,3.00
2018-09-09T21:34:43.636Z,2.92
2018-09-09T21:37:12.228Z,2.80
2018-09-09T21:39:40.921Z,2.67
2018-09-09T21:42:09.589Z,3.02
2018-09-09T21:44:38.886Z,2.50
2018-09-09T21:47:07.540Z,2.05
2018-09-09T21:49:36.099Z,2.67
2018-09-09T21:52:04.697Z,2.55
2018-09-09T21:54:33.447Z,2.27
2018-09-09T21:57:01.927Z,2.15
2018-09-09T21:59:31.133Z,3.02
2018-09-09T22:02:06.293Z,4.20
2018-09-09T22:04:34.991Z,1.92
2018-09-09T22:07:03.799Z,2.12
2018-09-09T22:09:33.054Z,2.17
2018-09-09T22:12:01.464Z,1.70
2018-09-09T22:14:30.088Z,2.12
2018-09-09T22:16:59.309Z,2.10
2018-09-09T22:19:28.133Z,2.27
2018-09-09T22:21:56.731Z,1.70
2018-09-09T22:24:26.089Z,1.57
2018-09-09T22:26:54.540Z,1.77
2018-09-09T22:29:23.061Z,1.72
2018-09-09T22:31:51.519Z,1.60
2018-09-09T22:34:20.021Z,1.90
2018-09-09T22:36:48.625Z,1.72
2018-09-09T22:39:17.028Z,1.67
2018-09-09T22:41:45.451Z,1.87
2018-09-09T22:44:14.077Z,1.67
2018-09-09T22:46:43.352Z,1.80
2018-09-09T22:49:12.109Z,1.60
2018-09-09T22:51:41.988Z,1.65
2018-09-09T22:54:10.398Z,1.70
2018-09-09T22:56:38.787Z,1.60
2018-09-09T22:59:07.481Z,1.60
2018-09-09T23:01:36.506Z,1.52
2018-09-09T23:04:05.195Z,1.67
2018-09-09T23:06:33.768Z,1.42
2018-09-09T23:09:03.844Z,1.82
2018-09-09T23:11:32.725Z,1.50
2018-09-09T23:14:01.876Z,1.70
2018-09-09T23:16:30.537Z,1.60
2018-09-09T23:19:06.357Z,1.85
2018-09-09T23:21:35.652Z,1.95
2018-09-09T23:24:04.115Z,2.25
2018-09-09T23:26:32.664Z,1.65
2018-09-09T23:29:01.384Z,5.22
2018-09-09T23:31:29.989Z,2.30
2018-09-09T23:33:59.393Z,1.80
2018-09-09T23:36:28.413Z,1.82
2018-09-09T23:38:56.835Z,1.60
2018-09-09T23:41:25.332Z,1.40
2018-09-09T23:43:53.889Z,1.80
2018-09-09T23:46:22.264Z,1.67
2018-09-09T23:48:50.666Z,1.40
2018-09-09T23:51:19.458Z,1.70
2018-09-09T23:53:47.905Z,1.30
2018-09-09T23:56:16.476Z,1.85
2018-09-09T23:58:44.980Z,1.60
